createdAt,value
2023-01-18T00:01:31.754Z,99.90
2023-01-18T00:03:59.740Z,99.90
2023-01-18T00:06:28.330Z,99.90
2023-01-18T00:09:00.581Z,99.90
2023-01-18T00:11:28.678Z,99.90
2023-01-18T00:13:56.762Z,99.90
2023-01-18T00:16:25.887Z,99.90
2023-01-18T00:18:56.182Z,99.90
2023-01-18T00:21:25.257Z,99.90
2023-01-18T00:23:53.420Z,99.90
2023-01-18T00:26:22.808Z,99.90
2023-01-18T00:28:50.914Z,99.90
2023-01-18T00:31:22.568Z,99.90
2023-01-18T00:33:51.661Z,99.90
2023-01-18T00:36:20.108Z,99.90
2023-01-18T00:38:52.444Z,99.90
2023-01-18T00:41:22.989Z,99.90
2023-01-18T00:43:50.769Z,99.90
2023-01-18T00:46:21.231Z,99.90
2023-01-18T00:48:49.807Z,99.90
2023-01-18T00:51:20.936Z,99.90
2023-01-18T00:53:50.089Z,99.90
2023-01-18T00:56:22.531Z,99.90
2023-01-18T00:58:52.147Z,99.90
2023-01-18T01:01:20.423Z,99.90
2023-01-18T01:04:11.499Z,99.90
2023-01-18T01:06:48.283Z,99.90
2023-01-18T01:09:20.474Z,99.90
2023-01-18T01:12:07.137Z,99.90
2023-01-18T01:14:59.340Z,99.90
2023-01-18T01:17:49.244Z,99.90
2023-01-18T01:20:35.149Z,99.90
2023-01-18T01:23:28.063Z,99.90
2023-01-18T01:26:06.489Z,99.90
2023-01-18T01:28:34.952Z,99.90
2023-01-18T01:31:06.627Z,99.90
2023-01-18T01:33:35.648Z,99.90
2023-01-18T01:36:07.489Z,99.90
2023-01-18T01:38:36.026Z,99.90
2023-01-18T01:41:06.901Z,99.90
2023-01-18T01:43:45.143Z,99.90
2023-01-18T01:46:35.375Z,99.90
2023-01-18T01:49:10.282Z,99.90
2023-01-18T01:51:42.076Z,99.90
2023-01-18T01:54:14.682Z,99.90
2023-01-18T01:56:44.732Z,99.90
2023-01-18T01:59:13.170Z,99.90
2023-01-18T02:01:43.854Z,99.90
2023-01-18T02:04:13.027Z,99.90
2023-01-18T02:06:41.698Z,99.90
2023-01-18T02:09:14.004Z,99.90
2023-01-18T02:11:43.798Z,99.90
2023-01-18T02:14:16.725Z,99.90
2023-01-18T02:17:10.122Z,99.90
2023-01-18T02:20:48.854Z,99.90
2023-01-18T02:23:40.140Z,99.90
2023-01-18T02:26:49.087Z,99.90
2023-01-18T02:29:19.947Z,99.90
2023-01-18T02:32:03.628Z,99.90
2023-01-18T02:34:41.723Z,99.90
2023-01-18T02:37:19.699Z,99.90
2023-01-18T02:40:02.143Z,99.90
2023-01-18T02:42:49.212Z,99.90
2023-01-18T02:45:45.961Z,99.90
2023-01-18T02:48:15.500Z,99.90
2023-01-18T02:50:43.541Z,99.90
2023-01-18T02:53:14.544Z,99.90
2023-01-18T02:55:51.235Z,99.90
2023-01-18T02:58:25.955Z,99.90
2023-01-18T03:00:59.300Z,99.90
2023-01-18T03:03:28.684Z,99.90
2023-01-18T03:06:03.993Z,99.90
2023-01-18T03:08:39.685Z,99.90
2023-01-18T03:11:15.360Z,99.90
2023-01-18T03:14:11.164Z,99.90
2023-01-18T03:16:58.869Z,99.90
2023-01-18T03:19:59.409Z,99.90
2023-01-18T03:22:47.431Z,99.90
2023-01-18T03:25:20.904Z,99.90
2023-01-18T03:28:09.671Z,99.90
2023-01-18T03:30:57.638Z,99.90
2023-01-18T03:33:45.903Z,99.90
2023-01-18T03:36:20.605Z,99.90
2023-01-18T03:38:54.909Z,99.90
2023-01-18T03:41:27.252Z,99.90
2023-01-18T03:43:59.414Z,99.90
2023-01-18T03:46:32.097Z,99.90
2023-01-18T03:49:01.898Z,99.90
2023-01-18T03:51:47.586Z,99.90
2023-01-18T03:54:23.028Z,99.90
2023-01-18T03:56:57.329Z,99.90
2023-01-18T03:59:27.360Z,99.90
2023-01-18T04:01:55.431Z,99.90
2023-01-18T04:04:24.851Z,99.90
2023-01-18T04:06:52.863Z,99.90
2023-01-18T04:09:20.837Z,99.90
2023-01-18T04:11:48.851Z,99.90
2023-01-18T04:14:17.016Z,99.90
2023-01-18T04:16:45.117Z,99.90
2023-01-18T04:19:13.135Z,99.90
2023-01-18T04:21:42.517Z,99.90
2023-01-18T04:24:11.207Z,99.90
2023-01-18T04:26:39.610Z,99.90
2023-01-18T04:29:09.563Z,99.90
2023-01-18T04:31:37.762Z,99.90
2023-01-18T04:34:05.835Z,99.90
2023-01-18T04:36:33.999Z,99.90
2023-01-18T04:39:03.437Z,99.90
2023-01-18T04:41:31.439Z,99.90
2023-01-18T04:44:00.222Z,99.90
2023-01-18T04:46:28.287Z,99.90
2023-01-18T04:48:56.247Z,99.90
2023-01-18T04:51:24.713Z,99.90
2023-01-18T04:53:52.870Z,99.90
2023-01-18T04:56:22.248Z,99.90
2023-01-18T04:58:50.251Z,99.90
2023-01-18T05:01:18.329Z,99.90
2023-01-18T05:03:46.497Z,99.90
2023-01-18T05:06:19.847Z,99.90
2023-01-18T05:08:48.040Z,99.90
2023-01-18T05:11:18.791Z,99.90
2023-01-18T05:13:48.486Z,99.90
2023-01-18T05:16:19.440Z,99.90
2023-01-18T05:18:47.975Z,99.90
2023-01-18T05:21:16.812Z,99.90
2023-01-18T05:23:47.324Z,99.90
2023-01-18T05:26:17.958Z,99.90
2023-01-18T05:28:47.692Z,99.90
2023-01-18T05:31:25.548Z,99.90
2023-01-18T05:34:02.583Z,99.90
2023-01-18T05:36:34.450Z,99.90
2023-01-18T05:39:09.304Z,99.90
2023-01-18T05:41:44.953Z,99.90
2023-01-18T05:44:18.617Z,99.90
2023-01-18T05:46:46.624Z,99.90
2023-01-18T05:49:16.563Z,99.90
2023-01-18T05:51:44.611Z,99.90
2023-01-18T05:54:13.265Z,99.90
2023-01-18T05:56:42.043Z,99.90
2023-01-18T05:59:10.428Z,99.90
2023-01-18T06:01:42.074Z,99.90
2023-01-18T06:04:10.285Z,99.90
2023-01-18T06:06:38.345Z,99.90
2023-01-18T06:09:09.331Z,99.90
2023-01-18T06:11:37.473Z,99.90
2023-01-18T06:14:05.497Z,99.90
2023-01-18T06:16:33.582Z,99.90
2023-01-18T06:19:02.973Z,99.90
2023-01-18T06:21:31.037Z,99.90
2023-01-18T06:23:59.046Z,99.90
2023-01-18T06:26:31.140Z,99.90
2023-01-18T06:28:59.199Z,99.90
2023-01-18T06:31:27.207Z,99.90
2023-01-18T06:33:55.273Z,99.90
2023-01-18T06:36:24.619Z,99.90
2023-01-18T06:38:55.512Z,99.90
2023-01-18T06:41:23.537Z,99.90
2023-01-18T06:43:52.889Z,99.90
2023-01-18T06:46:20.922Z,99.90
2023-01-18T06:48:49.128Z,99.90
2023-01-18T06:51:17.148Z,99.90
2023-01-18T06:53:46.541Z,99.90
2023-01-18T06:56:16.843Z,99.90
2023-01-18T06:58:45.044Z,99.90
2023-01-18T07:01:14.847Z,99.90
2023-01-18T07:03:42.955Z,99.90
2023-01-18T07:06:11.063Z,99.90
2023-01-18T07:08:40.102Z,99.90
2023-01-18T07:11:11.661Z,99.90
2023-01-18T07:13:43.557Z,99.90
2023-01-18T07:16:18.074Z,99.90
2023-01-18T07:18:47.699Z,99.90
2023-01-18T07:21:19.203Z,99.90
2023-01-18T07:23:47.588Z,99.90
2023-01-18T07:26:18.507Z,99.90
2023-01-18T07:28:47.868Z,99.90
2023-01-18T07:31:17.638Z,99.90
2023-01-18T07:33:50.896Z,99.90
2023-01-18T07:36:24.773Z,99.90
2023-01-18T07:38:54.640Z,99.90
2023-01-18T07:41:24.343Z,99.90
2023-01-18T07:43:53.923Z,99.90
2023-01-18T07:46:26.285Z,99.90
2023-01-18T07:48:55.054Z,99.90
2023-01-18T07:51:25.880Z,99.90
2023-01-18T07:53:56.313Z,99.90
2023-01-18T07:56:25.959Z,99.90
2023-01-18T07:58:55.655Z,99.90
2023-01-18T08:01:25.472Z,99.90
2023-01-18T08:03:54.678Z,99.90
2023-01-18T08:06:25.807Z,99.90
2023-01-18T08:08:55.787Z,99.90
2023-01-18T08:11:25.370Z,99.90
2023-01-18T08:13:58.803Z,99.90
2023-01-18T08:16:29.271Z,99.90
2023-01-18T08:18:57.401Z,99.90
2023-01-18T08:21:25.440Z,99.90
2023-01-18T08:23:54.682Z,99.90
2023-01-18T08:26:22.740Z,99.90
2023-01-18T08:28:52.155Z,99.90
2023-01-18T08:31:22.827Z,99.90
2023-01-18T08:33:51.062Z,99.90
2023-01-18T08:36:28.157Z,99.90
2023-01-18T08:38:57.813Z,99.90
2023-01-18T08:41:30.047Z,99.90
2023-01-18T08:44:00.571Z,99.90
2023-01-18T08:46:28.715Z,99.90
2023-01-18T08:48:59.085Z,99.90
2023-01-18T08:51:27.096Z,99.90
2023-01-18T08:53:56.531Z,99.90
2023-01-18T08:56:24.627Z,99.90
2023-01-18T08:58:52.954Z,99.90
2023-01-18T09:01:25.371Z,99.90
2023-01-18T09:03:56.006Z,99.90
2023-01-18T09:06:24.207Z,99.90
2023-01-18T09:08:53.199Z,99.90
2023-01-18T09:11:21.325Z,99.90
2023-01-18T09:14:00.323Z,99.90
2023-01-18T09:16:31.594Z,99.90
2023-01-18T09:19:00.085Z,99.90
2023-01-18T09:21:29.196Z,99.90
2023-01-18T09:23:57.844Z,99.90
2023-01-18T09:26:26.008Z,99.90
2023-01-18T09:28:56.616Z,99.90
2023-01-18T09:31:27.137Z,99.90
2023-01-18T09:34:17.378Z,99.90
2023-01-18T09:36:47.082Z,99.90
2023-01-18T09:39:15.066Z,99.90
2023-01-18T09:41:47.034Z,99.00
2023-01-18T09:44:25.816Z,99.10
2023-01-18T09:46:57.255Z,98.10
2023-01-18T09:49:33.818Z,98.20
2023-01-18T09:52:23.037Z,97.50
2023-01-18T09:54:57.611Z,97.40
2023-01-18T09:57:47.777Z,97.60
2023-01-18T10:00:22.999Z,97.10
2023-01-18T10:02:55.553Z,97.60
2023-01-18T10:05:28.532Z,97.50
2023-01-18T10:08:04.872Z,97.60
2023-01-18T10:10:38.704Z,98.20
2023-01-18T10:13:35.205Z,97.70
2023-01-18T10:16:06.239Z,97.90
2023-01-18T10:18:45.671Z,97.40
2023-01-18T10:21:26.605Z,98.10
2023-01-18T10:24:12.097Z,97.90
2023-01-18T10:26:43.572Z,97.50
2023-01-18T10:29:18.141Z,98.10
2023-01-18T10:31:57.950Z,98.40
2023-01-18T10:34:32.730Z,98.30
2023-01-18T10:37:12.400Z,99.00
2023-01-18T10:39:44.983Z,99.20
2023-01-18T10:42:22.015Z,98.80
2023-01-18T10:44:50.830Z,98.70
2023-01-18T10:47:20.690Z,99.60
2023-01-18T10:49:51.460Z,99.30
2023-01-18T10:52:34.784Z,99.60
2023-01-18T10:55:07.389Z,99.50
2023-01-18T10:57:43.205Z,99.90
2023-01-18T11:00:23.049Z,99.90
2023-01-18T11:02:53.247Z,99.90
2023-01-18T11:05:30.105Z,99.90
2023-01-18T11:08:31.470Z,99.90
2023-01-18T11:11:02.728Z,99.90
2023-01-18T11:13:38.166Z,99.90
2023-01-18T11:16:13.636Z,99.90
2023-01-18T11:18:58.250Z,99.80
2023-01-18T11:21:30.745Z,99.40
2023-01-18T11:24:07.575Z,99.30
2023-01-18T11:26:36.526Z,99.10
2023-01-18T11:29:07.839Z,99.90
2023-01-18T11:31:47.398Z,99.90
2023-01-18T11:34:28.962Z,99.90
2023-01-18T11:36:58.182Z,99.90
2023-01-18T11:39:32.090Z,99.90
2023-01-18T11:42:27.733Z,99.90
2023-01-18T11:45:07.283Z,99.90
2023-01-18T11:47:50.644Z,99.90
2023-01-18T11:50:30.461Z,99.90
2023-01-18T11:56:36.449Z,99.90
2023-01-18T12:00:05.039Z,99.90
2023-01-18T12:03:12.717Z,99.90
2023-01-18T12:05:49.873Z,99.90
2023-01-18T12:08:52.343Z,99.90
2023-01-18T12:11:45.568Z,99.90
2023-01-18T12:14:32.755Z,99.90
2023-01-18T12:17:34.569Z,99.90
2023-01-18T12:20:25.135Z,99.90
2023-01-18T12:23:30.013Z,99.90
2023-01-18T12:26:34.473Z,99.90
2023-01-18T12:29:27.383Z,99.90
2023-01-18T12:32:18.885Z,99.90
2023-01-18T12:35:15.614Z,99.90
2023-01-18T12:38:02.083Z,99.90
2023-01-18T12:40:46.745Z,99.90
2023-01-18T12:43:37.803Z,99.90
2023-01-18T12:46:09.080Z,99.60
2023-01-18T12:48:48.058Z,99.90
2023-01-18T12:51:19.697Z,99.20
2023-01-18T12:53:53.381Z,98.60
2023-01-18T12:56:27.610Z,98.40
2023-01-18T12:59:00.555Z,99.30
2023-01-18T13:01:34.528Z,99.10
2023-01-18T13:04:12.204Z,99.90
2023-01-18T13:06:42.508Z,99.90
2023-01-18T13:09:17.364Z,99.90
2023-01-18T13:11:46.102Z,99.90
2023-01-18T13:14:27.422Z,99.50
2023-01-18T13:17:04.551Z,99.80
2023-01-18T13:19:40.976Z,99.90
2023-01-18T13:22:22.032Z,99.70
2023-01-18T13:25:08.998Z,99.90
2023-01-18T13:27:37.844Z,99.90
2023-01-18T13:30:21.338Z,99.90
2023-01-18T13:32:49.560Z,99.90
2023-01-18T13:35:23.243Z,99.90
2023-01-18T13:37:57.786Z,99.90
2023-01-18T13:40:35.560Z,99.90
2023-01-18T13:43:05.735Z,99.90
2023-01-18T13:46:03.358Z,99.90
2023-01-18T13:48:52.490Z,99.90
2023-01-18T13:51:55.767Z,99.90
2023-01-18T13:55:03.950Z,99.90
2023-01-18T13:57:38.133Z,99.90
2023-01-18T14:00:19.851Z,99.90
2023-01-18T14:02:59.634Z,99.90
2023-01-18T14:05:36.853Z,99.90
2023-01-18T14:08:06.383Z,99.90
2023-01-18T14:10:38.090Z,99.90
2023-01-18T14:13:17.396Z,99.90
2023-01-18T14:15:51.391Z,99.90
2023-01-18T14:18:24.843Z,99.90
2023-01-18T14:21:12.354Z,99.90
2023-01-18T14:24:14.456Z,99.90
2023-01-18T14:26:44.577Z,99.90
2023-01-18T14:29:19.044Z,99.90
2023-01-18T14:31:54.440Z,99.90
2023-01-18T14:34:41.471Z,99.90
2023-01-18T14:37:31.126Z,99.90
2023-01-18T14:40:18.201Z,99.90
2023-01-18T14:42:51.762Z,99.90
2023-01-18T14:45:30.475Z,99.90
2023-01-18T14:48:01.565Z,99.90
2023-01-18T14:50:34.414Z,99.90
2023-01-18T14:53:05.503Z,99.90
2023-01-18T14:55:35.783Z,99.90
2023-01-18T14:58:12.942Z,99.90
2023-01-18T15:00:51.113Z,99.90
2023-01-18T15:03:24.162Z,99.90
2023-01-18T15:06:03.320Z,99.90
2023-01-18T15:08:35.001Z,99.90
2023-01-18T15:11:05.486Z,99.90
2023-01-18T15:13:35.760Z,99.90
2023-01-18T15:16:04.088Z,99.90
2023-01-18T15:18:32.203Z,99.90
2023-01-18T15:21:07.787Z,99.90
2023-01-18T15:23:37.578Z,99.90
2023-01-18T15:26:06.159Z,99.90
2023-01-18T15:28:38.020Z,99.90
2023-01-18T15:31:15.913Z,99.90
2023-01-18T15:33:47.783Z,99.90
2023-01-18T15:36:19.371Z,99.90
2023-01-18T15:38:47.380Z,99.90
2023-01-18T15:41:16.045Z,99.90
2023-01-18T15:43:52.508Z,99.90
2023-01-18T15:46:20.578Z,99.90
2023-01-18T15:48:52.915Z,99.90
2023-01-18T15:51:45.011Z,99.90
2023-01-18T15:54:19.122Z,99.90
2023-01-18T15:56:47.849Z,99.90
2023-01-18T15:59:22.819Z,99.90
2023-01-18T16:02:20.242Z,99.90
2023-01-18T16:04:51.149Z,99.90
2023-01-18T16:07:38.068Z,99.90
2023-01-18T16:10:30.147Z,99.90
2023-01-18T16:13:31.829Z,99.90
2023-01-18T16:16:16.349Z,99.90
2023-01-18T16:18:48.113Z,99.90
2023-01-18T16:21:24.573Z,99.90
2023-01-18T16:23:54.728Z,99.90
2023-01-18T16:26:29.008Z,99.90
2023-01-18T16:29:07.102Z,99.90
2023-01-18T16:31:36.062Z,99.90
2023-01-18T16:34:18.795Z,99.90
2023-01-18T16:36:46.876Z,99.90
2023-01-18T16:39:16.488Z,99.90
2023-01-18T16:41:52.361Z,99.90
2023-01-18T16:44:23.191Z,99.90
2023-01-18T16:46:53.866Z,99.90
2023-01-18T16:49:21.995Z,99.90
2023-01-18T16:51:50.704Z,99.90
2023-01-18T16:54:20.909Z,99.90
2023-01-18T16:56:50.001Z,99.90
2023-01-18T16:59:21.690Z,99.90
2023-01-18T17:01:50.517Z,99.90
2023-01-18T17:04:20.670Z,99.90
2023-01-18T17:06:48.766Z,99.90
2023-01-18T17:09:23.051Z,99.90
2023-01-18T17:11:51.948Z,99.90
2023-01-18T17:14:21.619Z,99.90
2023-01-18T17:16:50.520Z,99.90
2023-01-18T17:19:20.527Z,99.90
2023-01-18T17:21:50.292Z,99.90
2023-01-18T17:24:22.092Z,99.90
2023-01-18T17:26:50.552Z,99.90
2023-01-18T17:29:21.287Z,99.90
2023-01-18T17:31:53.346Z,99.90
2023-01-18T17:34:28.431Z,99.90
2023-01-18T17:36:59.832Z,99.90
2023-01-18T17:39:42.722Z,99.90
2023-01-18T17:42:29.820Z,99.90
2023-01-18T17:45:05.285Z,99.90
2023-01-18T17:47:38.881Z,99.90
2023-01-18T17:50:09.182Z,99.90
2023-01-18T17:52:41.823Z,99.90
2023-01-18T17:55:15.218Z,99.90
2023-01-18T17:57:45.446Z,99.90
2023-01-18T18:00:17.263Z,99.90
2023-01-18T18:02:46.624Z,99.90
2023-01-18T18:05:14.693Z,99.90
2023-01-18T18:07:44.696Z,99.90
2023-01-18T18:10:16.937Z,99.90
2023-01-18T18:12:45.120Z,99.90
2023-01-18T18:15:13.364Z,99.90
2023-01-18T18:17:43.708Z,99.90
2023-01-18T18:20:14.869Z,99.90
2023-01-18T18:22:42.897Z,99.90
2023-01-18T18:25:14.084Z,99.90
2023-01-18T18:27:46.532Z,99.90
2023-01-18T18:30:16.663Z,99.90
2023-01-18T18:32:44.901Z,99.90
2023-01-18T18:35:25.025Z,99.90
2023-01-18T18:37:57.471Z,99.90
2023-01-18T18:40:28.591Z,99.90
2023-01-18T18:43:02.237Z,99.90
2023-01-18T18:45:33.031Z,99.90
2023-01-18T18:48:01.683Z,99.90
2023-01-18T18:50:30.634Z,99.90
2023-01-18T18:53:01.200Z,99.90
2023-01-18T18:55:30.934Z,99.90
2023-01-18T18:57:59.352Z,99.90
2023-01-18T19:00:27.954Z,99.90
2023-01-18T19:03:02.919Z,99.90
2023-01-18T19:05:32.142Z,99.90
2023-01-18T19:08:00.711Z,99.90
2023-01-18T19:10:30.704Z,99.90
2023-01-18T19:12:59.598Z,99.90
2023-01-18T19:15:27.889Z,99.90
2023-01-18T19:17:55.940Z,99.90
2023-01-18T19:20:24.492Z,99.90
2023-01-18T19:22:52.664Z,99.90
2023-01-18T19:25:23.850Z,99.90
2023-01-18T19:27:53.203Z,99.90
2023-01-18T19:30:21.392Z,99.90
2023-01-18T19:32:50.791Z,99.90
2023-01-18T19:35:20.590Z,99.90
2023-01-18T19:37:49.347Z,99.90
2023-01-18T19:40:20.107Z,99.90
2023-01-18T19:42:55.858Z,99.90
2023-01-18T19:45:28.468Z,99.90
2023-01-18T19:47:58.278Z,99.90
2023-01-18T19:50:27.935Z,99.90
2023-01-18T19:52:56.104Z,99.90
2023-01-18T19:55:25.172Z,99.90
2023-01-18T19:57:57.047Z,99.90
2023-01-18T20:00:25.750Z,99.90
2023-01-18T20:02:54.306Z,99.90
2023-01-18T20:05:26.625Z,99.90
2023-01-18T20:07:55.737Z,99.90
2023-01-18T20:10:24.650Z,99.90
2023-01-18T20:12:54.070Z,99.90
2023-01-18T20:15:23.040Z,99.90
2023-01-18T20:17:51.178Z,99.90
2023-01-18T20:20:31.284Z,99.90
2023-01-18T20:23:01.060Z,99.90
2023-01-18T20:25:32.704Z,99.90
2023-01-18T20:28:02.269Z,99.90
2023-01-18T20:30:30.770Z,99.90
2023-01-18T20:32:59.109Z,99.90
2023-01-18T20:35:28.446Z,99.90
2023-01-18T20:37:56.756Z,99.90
2023-01-18T20:40:24.848Z,99.90
2023-01-18T20:42:52.891Z,99.90
2023-01-18T20:45:22.256Z,99.90
2023-01-18T20:47:50.318Z,99.90
2023-01-18T20:50:18.869Z,99.90
2023-01-18T20:52:47.173Z,99.90
2023-01-18T20:55:16.474Z,99.90
2023-01-18T20:57:44.507Z,99.90
2023-01-18T21:00:13.927Z,99.90
2023-01-18T21:02:43.591Z,99.90
2023-01-18T21:05:12.223Z,99.90
2023-01-18T21:07:41.880Z,99.90
2023-01-18T21:10:12.135Z,99.90
2023-01-18T21:12:41.249Z,99.90
2023-01-18T21:15:10.752Z,99.90
2023-01-18T21:17:39.632Z,99.90
2023-01-18T21:20:11.636Z,99.90
2023-01-18T21:22:39.657Z,99.90
2023-01-18T21:25:08.760Z,99.90
2023-01-18T21:27:37.582Z,99.90
2023-01-18T21:30:07.073Z,99.90
2023-01-18T21:32:35.144Z,99.90
2023-01-18T21:35:03.125Z,99.90
2023-01-18T21:37:32.801Z,99.90
2023-01-18T21:40:00.801Z,99.90
2023-01-18T21:42:46.753Z,99.90
2023-01-18T21:45:32.781Z,99.90
2023-01-18T21:48:01.450Z,99.90
2023-01-18T21:50:47.262Z,99.90
2023-01-18T21:53:33.323Z,99.90
2023-01-18T21:56:01.665Z,99.90
2023-01-18T21:58:47.442Z,99.90
2023-01-18T22:01:18.429Z,99.90
2023-01-18T22:04:04.372Z,99.90
2023-01-18T22:06:32.550Z,99.90
2023-01-18T22:09:02.080Z,99.90
2023-01-18T22:11:30.107Z,99.90
2023-01-18T22:13:58.365Z,99.90
2023-01-18T22:16:30.481Z,99.90
2023-01-18T22:18:59.163Z,99.90
2023-01-18T22:21:30.819Z,99.90
2023-01-18T22:24:01.262Z,99.90
2023-01-18T22:26:31.530Z,99.90
2023-01-18T22:28:59.758Z,99.90
2023-01-18T22:31:29.118Z,99.90
2023-01-18T22:33:57.780Z,99.90
2023-01-18T22:36:26.135Z,99.90
2023-01-18T22:38:54.881Z,99.90
2023-01-18T22:41:27.223Z,99.90
2023-01-18T22:43:56.279Z,99.90
2023-01-18T22:46:25.291Z,99.90
2023-01-18T22:48:53.696Z,99.90
2023-01-18T22:51:24.204Z,99.90
2023-01-18T22:53:53.239Z,99.90
2023-01-18T22:56:25.012Z,99.90
2023-01-18T22:58:53.477Z,99.90
2023-01-18T23:01:25.015Z,99.90
2023-01-18T23:03:53.660Z,99.90
2023-01-18T23:06:21.964Z,99.90
2023-01-18T23:08:50.839Z,99.90
2023-01-18T23:11:23.383Z,99.90
2023-01-18T23:14:12.052Z,99.90
2023-01-18T23:16:57.993Z,99.90
2023-01-18T23:19:29.447Z,99.90
2023-01-18T23:21:57.856Z,99.90
2023-01-18T23:24:26.257Z,99.90
2023-01-18T23:26:55.592Z,99.90
2023-01-18T23:29:23.797Z,99.90
2023-01-18T23:31:51.772Z,99.90
2023-01-18T23:34:20.065Z,99.90
2023-01-18T23:36:48.076Z,99.90
2023-01-18T23:39:33.792Z,99.90
2023-01-18T23:42:20.709Z,99.90
2023-01-18T23:45:06.104Z,99.90
2023-01-18T23:47:51.512Z,99.90
2023-01-18T23:50:37.458Z,99.90
2023-01-18T23:53:23.457Z,99.90
2023-01-18T23:55:53.478Z,99.90
2023-01-18T23:58:22.863Z,99.90
